createdAt,value
2018-03-24T00:00:57.963Z,1002.78
2018-03-24T00:02:19.515Z,1002.78
2018-03-24T00:02:58.794Z,1002.79
2018-03-24T00:03:59.205Z,1002.79
2018-03-24T00:04:59.625Z,1002.79
2018-03-24T00:06:00.052Z,1002.74
2018-03-24T00:07:00.477Z,1002.73
2018-03-24T00:08:22.055Z,1002.73
2018-03-24T00:09:01.304Z,1002.76
2018-03-24T00:10:01.745Z,1002.72
2018-03-24T00:11:02.147Z,1002.74
2018-03-24T00:12:02.564Z,1002.70
2018-03-24T00:13:02.980Z,1002.76
2018-03-24T00:14:24.558Z,1002.69
2018-03-24T00:15:03.824Z,1002.75
2018-03-24T00:16:04.247Z,1002.74
2018-03-24T00:17:04.664Z,1002.74
2018-03-24T00:18:05.109Z,1002.72
2018-03-24T00:19:05.501Z,1002.71
2018-03-24T00:20:27.093Z,1002.73
2018-03-24T00:21:06.376Z,1002.69
2018-03-24T00:22:06.769Z,1002.71
2018-03-24T00:23:07.252Z,1002.74
2018-03-24T00:24:07.605Z,1002.77
2018-03-24T00:25:08.024Z,1002.73
2018-03-24T00:26:29.608Z,1002.77
2018-03-24T00:27:08.869Z,1002.73
2018-03-24T00:28:09.302Z,1002.75
2018-03-24T00:29:09.705Z,1002.71
2018-03-24T00:30:10.144Z,1002.70
2018-03-24T00:31:10.544Z,1002.69
2018-03-24T00:32:32.120Z,1002.69
2018-03-24T00:33:11.385Z,1002.67
2018-03-24T00:34:11.823Z,1002.68
2018-03-24T00:35:12.233Z,1002.70
2018-03-24T00:36:12.657Z,1002.66
2018-03-24T00:37:13.072Z,1002.65
2018-03-24T00:38:34.642Z,1002.63
2018-03-24T00:39:13.937Z,1002.65
2018-03-24T00:40:14.327Z,1002.61
2018-03-24T00:41:14.756Z,1002.56
2018-03-24T00:42:15.222Z,1002.62
2018-03-24T00:43:15.588Z,1002.63
2018-03-24T00:44:37.172Z,1002.61
2018-03-24T00:45:16.424Z,1002.64
2018-03-24T00:46:16.850Z,1002.64
2018-03-24T00:47:17.275Z,1002.64
2018-03-24T00:48:17.704Z,1002.65
2018-03-24T00:49:18.113Z,1002.64
2018-03-24T00:50:39.686Z,1002.67
2018-03-24T00:51:18.952Z,1002.62
2018-03-24T00:52:19.370Z,1002.58
2018-03-24T00:53:19.788Z,1002.66
2018-03-24T00:54:20.212Z,1002.67
2018-03-24T00:55:20.650Z,1002.65
2018-03-24T00:56:42.214Z,1002.66
2018-03-24T00:57:21.474Z,1002.64
2018-03-24T00:58:21.899Z,1002.66
2018-03-24T00:59:22.316Z,1002.66
2018-03-24T01:00:22.747Z,1002.68
2018-03-24T01:01:23.159Z,1002.64
2018-03-24T01:02:44.734Z,1002.67
2018-03-24T01:03:23.993Z,1002.64
2018-03-24T01:04:24.437Z,1002.62
2018-03-24T01:05:24.900Z,1002.62
2018-03-24T01:06:25.252Z,1002.59
2018-03-24T01:07:25.672Z,1002.57
2018-03-24T01:08:47.252Z,1002.50
2018-03-24T01:09:26.515Z,1002.49
2018-03-24T01:10:26.940Z,1002.49
2018-03-24T01:11:27.369Z,1002.50
2018-03-24T01:12:27.779Z,1002.49
2018-03-24T01:13:28.202Z,1002.48
2018-03-24T01:14:49.769Z,1002.47
2018-03-24T01:15:29.032Z,1002.40
2018-03-24T01:16:29.461Z,1002.46
2018-03-24T01:17:29.877Z,1002.47
2018-03-24T01:18:30.299Z,1002.41
2018-03-24T01:19:30.721Z,1002.41
2018-03-24T01:20:52.300Z,1002.42
2018-03-24T01:21:31.567Z,1002.39
2018-03-24T01:22:31.981Z,1002.37
2018-03-24T01:23:32.402Z,1002.39
2018-03-24T01:24:32.836Z,1002.39
2018-03-24T01:25:33.242Z,1002.35
2018-03-24T01:26:54.824Z,1002.41
2018-03-24T01:27:34.078Z,1002.37
2018-03-24T01:28:34.500Z,1002.33
2018-03-24T01:29:34.913Z,1002.33
2018-03-24T01:30:35.336Z,1002.31
2018-03-24T01:31:35.758Z,1002.30
2018-03-24T01:32:57.341Z,1002.34
2018-03-24T01:33:36.604Z,1002.31
2018-03-24T01:34:37.021Z,1002.33
2018-03-24T01:35:37.441Z,1002.35
2018-03-24T01:36:37.863Z,1002.31
2018-03-24T01:37:38.296Z,1002.31
2018-03-24T01:38:59.928Z,1002.32
2018-03-24T01:39:39.119Z,1002.28
2018-03-24T01:40:39.553Z,1002.26
2018-03-24T01:41:39.960Z,1002.29
2018-03-24T01:42:40.378Z,1002.25
2018-03-24T01:43:40.794Z,1002.26
2018-03-24T01:45:02.386Z,1002.24
2018-03-24T01:45:41.658Z,1002.24
2018-03-24T01:46:42.057Z,1002.21
2018-03-24T01:47:42.486Z,1002.25
2018-03-24T01:48:42.904Z,1002.23
2018-03-24T01:49:43.321Z,1002.23
2018-03-24T01:51:04.895Z,1002.21
2018-03-24T01:51:44.166Z,1002.21
2018-03-24T01:52:44.579Z,1002.26
2018-03-24T01:53:45.011Z,1002.18
2018-03-24T01:54:45.424Z,1002.17
2018-03-24T01:55:45.847Z,1002.21
2018-03-24T01:57:07.418Z,1002.25
2018-03-24T01:57:46.683Z,1002.26
2018-03-24T01:58:47.099Z,1002.19
2018-03-24T01:59:47.547Z,1002.21
2018-03-24T02:00:47.944Z,1002.21
2018-03-24T02:01:48.359Z,1002.23
2018-03-24T02:03:09.951Z,1002.23
2018-03-24T02:03:49.201Z,1002.20
2018-03-24T02:04:49.629Z,1002.22
2018-03-24T02:05:50.043Z,1002.21
2018-03-24T02:06:50.479Z,1002.21
2018-03-24T02:07:50.881Z,1002.25
2018-03-24T02:09:12.461Z,1002.24
2018-03-24T02:09:51.795Z,1002.27
2018-03-24T02:10:52.136Z,1002.24
2018-03-24T02:11:52.586Z,1002.21
2018-03-24T02:12:52.988Z,1002.22
2018-03-24T02:13:53.400Z,1002.22
2018-03-24T02:15:14.994Z,1002.21
2018-03-24T02:15:54.243Z,1002.22
2018-03-24T02:16:54.658Z,1002.15
2018-03-24T02:17:55.079Z,1002.16
2018-03-24T02:18:55.498Z,1002.17
2018-03-24T02:19:55.925Z,1002.12
2018-03-24T02:21:17.509Z,1002.13
2018-03-24T02:21:56.758Z,1002.10
2018-03-24T02:22:57.183Z,1002.11
2018-03-24T02:23:57.601Z,1002.06
2018-03-24T02:24:58.018Z,1002.05
2018-03-24T02:25:58.467Z,1002.12
2018-03-24T02:27:20.014Z,1002.09
2018-03-24T02:27:59.288Z,1002.10
2018-03-24T02:28:59.703Z,1002.07
2018-03-24T02:30:00.120Z,1002.08
2018-03-24T02:31:00.561Z,1002.05
2018-03-24T02:32:00.970Z,1002.07
2018-03-24T02:33:22.540Z,1002.07
2018-03-24T02:34:01.808Z,1002.11
2018-03-24T02:35:02.222Z,1002.02
2018-03-24T02:36:02.658Z,1002.08
2018-03-24T02:37:03.060Z,1002.05
2018-03-24T02:38:03.483Z,1002.09
2018-03-24T02:39:25.061Z,1002.08
2018-03-24T02:40:04.321Z,1002.05
2018-03-24T02:41:04.748Z,1002.02
2018-03-24T02:42:05.164Z,1002.05
2018-03-24T02:43:05.583Z,1002.05
2018-03-24T02:44:05.993Z,1002.04
2018-03-24T02:45:27.584Z,1002.05
2018-03-24T02:46:06.840Z,1002.01
2018-03-24T02:47:07.262Z,1002.04
2018-03-24T02:48:07.686Z,1002.03
2018-03-24T02:49:08.106Z,1002.02
2018-03-24T02:50:08.520Z,1002.02
2018-03-24T02:51:30.105Z,1002.01
2018-03-24T02:52:09.374Z,1001.95
2018-03-24T02:53:09.794Z,1001.93
2018-03-24T02:54:10.202Z,1001.95
2018-03-24T02:55:10.653Z,1001.93
2018-03-24T02:56:11.046Z,1001.94
2018-03-24T02:57:32.627Z,1001.94
2018-03-24T02:58:11.898Z,1001.95
2018-03-24T02:59:12.328Z,1001.94
2018-03-24T03:00:12.731Z,1001.97
2018-03-24T03:01:13.146Z,1001.95
2018-03-24T03:02:13.563Z,1001.95
2018-03-24T03:03:35.140Z,1001.93
2018-03-24T03:04:14.405Z,1001.95
2018-03-24T03:05:14.821Z,1001.97
2018-03-24T03:06:15.242Z,1001.95
2018-03-24T03:07:15.662Z,1001.97
2018-03-24T03:08:16.092Z,1002.00
2018-03-24T03:09:37.656Z,1002.03
2018-03-24T03:10:16.929Z,1002.01
2018-03-24T03:11:17.367Z,1002.01
2018-03-24T03:12:17.757Z,1002.01
2018-03-24T03:13:18.186Z,1002.01
2018-03-24T03:14:18.611Z,1001.96
2018-03-24T03:15:40.183Z,1001.96
2018-03-24T03:16:19.444Z,1001.93
2018-03-24T03:17:19.862Z,1001.94
2018-03-24T03:18:20.286Z,1001.94
2018-03-24T03:19:20.709Z,1001.94
2018-03-24T03:20:21.144Z,1001.98
2018-03-24T03:21:42.698Z,1001.95
2018-03-24T03:22:21.972Z,1001.99
2018-03-24T03:23:22.387Z,1001.99
2018-03-24T03:24:22.856Z,1001.93
2018-03-24T03:25:23.228Z,1001.99
2018-03-24T03:26:23.652Z,1001.97
2018-03-24T03:27:45.218Z,1001.99
2018-03-24T03:28:24.487Z,1001.99
2018-03-24T03:29:24.910Z,1001.99
2018-03-24T03:30:25.343Z,1001.96
2018-03-24T03:31:25.744Z,1001.97
2018-03-24T03:32:26.162Z,1002.00
2018-03-24T03:33:47.753Z,1001.97
2018-03-24T03:34:27.015Z,1002.01
2018-03-24T03:35:27.427Z,1002.02
2018-03-24T03:36:27.843Z,1002.06
2018-03-24T03:37:28.294Z,1002.03
2018-03-24T03:38:28.681Z,1002.00
2018-03-24T03:39:50.266Z,1002.05
2018-03-24T03:40:29.542Z,1002.01
2018-03-24T03:41:29.956Z,1002.02
2018-03-24T03:42:30.372Z,1002.02
2018-03-24T03:43:30.808Z,1002.00
2018-03-24T03:44:31.211Z,1001.99
2018-03-24T03:45:52.793Z,1001.98
2018-03-24T03:46:32.057Z,1001.97
2018-03-24T03:47:32.481Z,1001.93
2018-03-24T03:48:32.893Z,1001.95
2018-03-24T03:49:33.315Z,1001.95
2018-03-24T03:50:33.734Z,1001.92
2018-03-24T03:51:55.315Z,1001.94
2018-03-24T03:52:34.572Z,1001.94
2018-03-24T03:53:35.015Z,1001.96
2018-03-24T03:54:35.413Z,1001.96
2018-03-24T03:55:35.841Z,1001.96
2018-03-24T03:56:36.266Z,1001.97
2018-03-24T03:57:57.837Z,1001.96
2018-03-24T03:58:37.096Z,1001.96
2018-03-24T03:59:37.528Z,1001.95
2018-03-24T04:00:37.936Z,1001.99
2018-03-24T04:01:38.369Z,1001.96
2018-03-24T04:02:38.787Z,1001.95
2018-03-24T04:04:00.365Z,1001.93
2018-03-24T04:04:39.635Z,1002.01
2018-03-24T04:05:40.051Z,1002.01
2018-03-24T04:06:40.469Z,1002.01
2018-03-24T04:07:40.894Z,1001.96
2018-03-24T04:08:41.308Z,1001.99
2018-03-24T04:10:02.884Z,1001.98
2018-03-24T04:10:42.157Z,1001.96
2018-03-24T04:11:42.574Z,1001.95
2018-03-24T04:12:43.015Z,1002.00
2018-03-24T04:13:43.420Z,1001.98
2018-03-24T04:14:43.827Z,1001.96
2018-03-24T04:16:05.406Z,1001.92
2018-03-24T04:16:44.680Z,1001.96
2018-03-24T04:17:45.092Z,1001.95
2018-03-24T04:18:45.517Z,1001.92
2018-03-24T04:19:45.942Z,1001.95
2018-03-24T04:20:46.362Z,1002.00
2018-03-24T04:22:07.937Z,1001.98
2018-03-24T04:22:47.192Z,1002.00
2018-03-24T04:23:47.622Z,1002.01
2018-03-24T04:24:48.035Z,1002.00
2018-03-24T04:25:48.468Z,1001.96
2018-03-24T04:26:48.892Z,1001.96
2018-03-24T04:28:10.452Z,1001.97
2018-03-24T04:28:49.721Z,1001.97
2018-03-24T04:29:50.139Z,1001.95
2018-03-24T04:30:50.562Z,1002.00
2018-03-24T04:31:50.988Z,1001.98
2018-03-24T04:32:51.408Z,1001.99
2018-03-24T04:34:12.982Z,1001.98
2018-03-24T04:34:52.245Z,1001.98
2018-03-24T04:35:52.661Z,1002.00
2018-03-24T04:36:53.091Z,1002.00
2018-03-24T04:37:53.507Z,1002.00
2018-03-24T04:38:53.942Z,1002.01
2018-03-24T04:40:15.500Z,1001.99
2018-03-24T04:40:54.769Z,1001.99
2018-03-24T04:41:55.203Z,1001.98
2018-03-24T04:42:55.606Z,1002.01
2018-03-24T04:43:56.024Z,1002.00
2018-03-24T04:44:56.455Z,1002.03
2018-03-24T04:46:18.020Z,1002.02
2018-03-24T04:46:57.289Z,1002.00
2018-03-24T04:47:57.703Z,1002.01
2018-03-24T04:48:58.129Z,1001.99
2018-03-24T04:49:58.553Z,1002.05
2018-03-24T04:50:58.979Z,1002.03
2018-03-24T04:53:32.558Z,1002.06
2018-03-24T04:54:32.972Z,1002.04
2018-03-24T04:56:27.556Z,1002.07
2018-03-24T04:57:27.974Z,1002.07
2018-03-24T04:59:22.566Z,1002.06
2018-03-24T05:00:22.968Z,1002.09
2018-03-24T05:02:17.557Z,1002.09
2018-03-24T05:03:17.968Z,1002.09
2018-03-24T05:05:12.557Z,1002.06
2018-03-24T05:06:12.984Z,1002.07
2018-03-24T05:08:08.544Z,1002.05
2018-03-24T05:09:08.962Z,1002.11
2018-03-24T05:11:03.539Z,1002.09
2018-03-24T05:12:03.965Z,1002.12
2018-03-24T05:13:59.565Z,1002.15
2018-03-24T05:14:59.951Z,1002.11
2018-03-24T05:16:58.504Z,1002.14
2018-03-24T05:17:58.928Z,1002.14
2018-03-24T05:18:59.342Z,1002.16
2018-03-24T05:19:59.767Z,1002.15
2018-03-24T05:21:00.196Z,1002.16
2018-03-24T05:22:00.625Z,1002.20
2018-03-24T05:23:01.030Z,1002.18
2018-03-24T05:24:01.471Z,1002.14
2018-03-24T05:25:01.877Z,1002.17
2018-03-24T05:26:02.298Z,1002.12
2018-03-24T05:27:02.711Z,1002.15
2018-03-24T05:28:03.140Z,1002.15
2018-03-24T05:29:03.562Z,1002.19
2018-03-24T05:30:03.978Z,1002.15
2018-03-24T05:31:04.404Z,1002.19
2018-03-24T05:32:04.818Z,1002.18
2018-03-24T05:33:05.244Z,1002.19
2018-03-24T05:34:05.664Z,1002.16
2018-03-24T05:35:06.080Z,1002.13
2018-03-24T05:36:06.564Z,1002.14
2018-03-24T05:37:06.931Z,1002.16
2018-03-24T05:38:07.350Z,1002.16
2018-03-24T05:39:07.770Z,1002.13
2018-03-24T05:40:08.189Z,1002.14
2018-03-24T05:41:08.609Z,1002.16
2018-03-24T05:42:09.034Z,1002.19
2018-03-24T05:43:09.452Z,1002.18
2018-03-24T05:44:09.874Z,1002.20
2018-03-24T05:45:10.300Z,1002.24
2018-03-24T05:46:10.714Z,1002.21
2018-03-24T05:47:11.137Z,1002.21
2018-03-24T05:48:11.557Z,1002.22
2018-03-24T05:49:11.981Z,1002.22
2018-03-24T05:50:12.395Z,1002.23
2018-03-24T05:51:12.825Z,1002.21
2018-03-24T05:52:13.236Z,1002.25
2018-03-24T05:53:13.663Z,1002.28
2018-03-24T05:54:14.085Z,1002.31
2018-03-24T05:55:14.508Z,1002.32
2018-03-24T05:56:14.924Z,1002.35
2018-03-24T05:57:15.348Z,1002.33
2018-03-24T05:58:15.762Z,1002.37
2018-03-24T05:59:16.186Z,1002.35
2018-03-24T06:00:16.634Z,1002.35
2018-03-24T06:01:17.028Z,1002.39
2018-03-24T06:02:17.445Z,1002.38
2018-03-24T06:03:17.866Z,1002.40
2018-03-24T06:04:18.365Z,1002.38
2018-03-24T06:05:18.715Z,1002.43
2018-03-24T06:06:19.132Z,1002.43
2018-03-24T06:07:19.559Z,1002.40
2018-03-24T06:08:19.974Z,1002.44
2018-03-24T06:09:20.395Z,1002.46
2018-03-24T06:10:20.817Z,1002.48
2018-03-24T06:11:21.234Z,1002.48
2018-03-24T06:12:21.664Z,1002.49
2018-03-24T06:13:22.081Z,1002.50
2018-03-24T06:14:22.498Z,1002.50
2018-03-24T06:15:22.916Z,1002.49
2018-03-24T06:16:23.364Z,1002.52
2018-03-24T06:17:23.765Z,1002.52
2018-03-24T06:18:24.177Z,1002.51
2018-03-24T06:19:24.675Z,1002.58
2018-03-24T06:20:25.029Z,1002.53
2018-03-24T06:21:25.441Z,1002.55
2018-03-24T06:22:25.862Z,1002.56
2018-03-24T06:23:26.282Z,1002.58
2018-03-24T06:24:26.704Z,1002.54
2018-03-24T06:25:27.131Z,1002.62
2018-03-24T06:26:27.545Z,1002.56
2018-03-24T06:27:27.969Z,1002.58
2018-03-24T06:28:28.386Z,1002.56
2018-03-24T06:29:28.809Z,1002.59
2018-03-24T06:30:29.226Z,1002.55
2018-03-24T06:31:29.649Z,1002.57
2018-03-24T06:32:30.072Z,1002.57
2018-03-24T06:33:30.490Z,1002.56
2018-03-24T06:34:30.910Z,1002.59
2018-03-24T06:35:31.342Z,1002.60
2018-03-24T06:36:31.763Z,1002.60
2018-03-24T06:37:32.207Z,1002.63
2018-03-24T06:38:32.598Z,1002.65
2018-03-24T06:39:33.031Z,1002.65
2018-03-24T06:40:33.439Z,1002.64
2018-03-24T06:41:33.856Z,1002.65
2018-03-24T06:42:34.275Z,1002.65
2018-03-24T06:43:34.698Z,1002.64
2018-03-24T06:44:35.128Z,1002.62
2018-03-24T06:45:35.552Z,1002.65
2018-03-24T06:46:35.970Z,1002.63
2018-03-24T06:47:36.384Z,1002.64
2018-03-24T06:48:36.815Z,1002.65
2018-03-24T06:49:37.232Z,1002.64
2018-03-24T06:50:37.652Z,1002.67
2018-03-24T06:51:38.070Z,1002.64
2018-03-24T06:52:38.490Z,1002.69
2018-03-24T06:53:38.934Z,1002.67
2018-03-24T06:54:39.338Z,1002.73
2018-03-24T06:55:39.753Z,1002.68
2018-03-24T06:56:40.175Z,1002.73
2018-03-24T06:57:40.615Z,1002.70
2018-03-24T06:58:41.026Z,1002.74
2018-03-24T06:59:41.448Z,1002.72
2018-03-24T07:00:41.863Z,1002.73
2018-03-24T07:01:42.281Z,1002.70
2018-03-24T07:02:42.705Z,1002.72
2018-03-24T07:03:43.126Z,1002.73
2018-03-24T07:04:43.545Z,1002.75
2018-03-24T07:05:43.967Z,1002.75
2018-03-24T07:06:44.392Z,1002.77
2018-03-24T07:07:44.879Z,1002.74
2018-03-24T07:08:45.238Z,1002.80
2018-03-24T07:09:45.655Z,1002.77
2018-03-24T07:10:46.076Z,1002.77
2018-03-24T07:11:46.498Z,1002.77
2018-03-24T07:12:46.918Z,1002.79
2018-03-24T07:13:47.340Z,1002.75
2018-03-24T07:14:47.763Z,1002.80
2018-03-24T07:15:48.186Z,1002.80
2018-03-24T07:16:48.614Z,1002.80
2018-03-24T07:17:49.030Z,1002.83
2018-03-24T07:18:49.446Z,1002.80
2018-03-24T07:19:49.868Z,1002.82
2018-03-24T07:20:50.290Z,1002.83
2018-03-24T07:21:50.713Z,1002.84
2018-03-24T07:22:51.133Z,1002.83
2018-03-24T07:23:51.554Z,1002.91
2018-03-24T07:24:51.982Z,1002.85
2018-03-24T07:25:52.399Z,1002.91
2018-03-24T07:26:52.817Z,1002.93
2018-03-24T07:27:53.238Z,1002.89
2018-03-24T07:28:53.658Z,1002.89
2018-03-24T07:29:54.083Z,1002.92
2018-03-24T07:30:54.505Z,1002.91
2018-03-24T07:31:54.922Z,1002.93
2018-03-24T07:32:55.341Z,1002.92
2018-03-24T07:33:55.770Z,1002.93
2018-03-24T07:34:56.187Z,1002.97
2018-03-24T07:35:56.607Z,1002.98
2018-03-24T07:36:57.041Z,1002.98
2018-03-24T07:37:57.453Z,1003.02
2018-03-24T07:38:57.872Z,1003.00
2018-03-24T07:39:58.291Z,1003.01
2018-03-24T07:40:58.713Z,1003.01
2018-03-24T07:41:59.142Z,1003.00
2018-03-24T07:42:59.560Z,1003.03
2018-03-24T07:43:59.974Z,1003.05
2018-03-24T07:45:00.401Z,1003.05
2018-03-24T07:46:00.833Z,1003.00
2018-03-24T07:47:01.252Z,1003.01
2018-03-24T07:48:01.663Z,1003.02
2018-03-24T07:49:02.095Z,1003.03
2018-03-24T07:50:02.512Z,1003.03
2018-03-24T07:51:02.932Z,1003.06
2018-03-24T07:52:03.351Z,1003.06
2018-03-24T07:53:03.784Z,1003.08
2018-03-24T07:54:04.192Z,1003.11
2018-03-24T07:55:04.614Z,1003.09
2018-03-24T07:56:05.034Z,1003.05
2018-03-24T07:57:05.463Z,1003.12
2018-03-24T07:58:05.870Z,1003.12
2018-03-24T07:59:06.305Z,1003.13
2018-03-24T08:00:06.722Z,1003.17
2018-03-24T08:01:07.151Z,1003.15
2018-03-24T08:02:07.568Z,1003.12
2018-03-24T08:03:08.011Z,1003.14
2018-03-24T08:04:08.415Z,1003.16
2018-03-24T08:05:08.838Z,1003.17
2018-03-24T08:06:09.249Z,1003.15
2018-03-24T08:07:09.671Z,1003.18
2018-03-24T08:08:10.097Z,1003.16
2018-03-24T08:09:10.527Z,1003.22
2018-03-24T08:10:10.942Z,1003.16
2018-03-24T08:11:11.412Z,1003.21
2018-03-24T08:12:11.788Z,1003.21
2018-03-24T08:13:12.203Z,1003.23
2018-03-24T08:14:12.631Z,1003.24
2018-03-24T08:15:13.060Z,1003.23
2018-03-24T08:16:13.495Z,1003.22
2018-03-24T08:17:13.902Z,1003.23
2018-03-24T08:18:14.318Z,1003.24
2018-03-24T08:19:14.730Z,1003.26
2018-03-24T08:20:15.155Z,1003.27
2018-03-24T08:21:15.587Z,1003.27
2018-03-24T08:22:16.001Z,1003.27
2018-03-24T08:23:16.422Z,1003.29
2018-03-24T08:24:16.846Z,1003.32
2018-03-24T08:25:17.276Z,1003.32
2018-03-24T08:26:17.693Z,1003.31
2018-03-24T08:27:18.112Z,1003.32
2018-03-24T08:28:18.537Z,1003.33
2018-03-24T08:29:18.965Z,1003.32
2018-03-24T08:30:19.384Z,1003.33
2018-03-24T08:31:19.803Z,1003.32
2018-03-24T08:32:20.224Z,1003.34
2018-03-24T08:33:20.639Z,1003.36
2018-03-24T08:34:21.071Z,1003.39
2018-03-24T08:35:21.490Z,1003.32
2018-03-24T08:36:21.914Z,1003.37
2018-03-24T08:37:22.334Z,1003.37
2018-03-24T08:38:22.800Z,1003.32
2018-03-24T08:39:23.173Z,1003.35
2018-03-24T08:40:23.597Z,1003.32
2018-03-24T08:41:24.016Z,1003.37
2018-03-24T08:42:24.439Z,1003.36
2018-03-24T08:43:24.872Z,1003.38
2018-03-24T08:44:25.300Z,1003.35
2018-03-24T08:45:25.709Z,1003.36
2018-03-24T08:46:26.128Z,1003.41
2018-03-24T08:47:26.563Z,1003.43
2018-03-24T08:48:26.972Z,1003.40
2018-03-24T08:49:27.394Z,1003.39
2018-03-24T08:50:27.835Z,1003.39
2018-03-24T08:51:28.235Z,1003.36
2018-03-24T08:52:28.665Z,1003.34
2018-03-24T08:53:29.109Z,1003.38
2018-03-24T08:54:29.542Z,1003.39
2018-03-24T08:55:29.984Z,1003.38
2018-03-24T08:56:30.350Z,1003.37
2018-03-24T08:57:30.779Z,1003.40
2018-03-24T08:58:31.193Z,1003.40
2018-03-24T08:59:31.621Z,1003.43
2018-03-24T09:00:32.045Z,1003.43
2018-03-24T09:01:32.470Z,1003.38
2018-03-24T09:02:32.892Z,1003.40
2018-03-24T09:03:33.327Z,1003.39
2018-03-24T09:04:33.741Z,1003.42
2018-03-24T09:05:34.182Z,1003.37
2018-03-24T09:06:34.586Z,1003.44
2018-03-24T09:07:35.001Z,1003.37
2018-03-24T09:08:35.428Z,1003.38
2018-03-24T09:09:35.860Z,1003.41
2018-03-24T09:10:36.274Z,1003.44
2018-03-24T09:11:36.689Z,1003.40
2018-03-24T09:12:37.132Z,1003.43
2018-03-24T09:13:37.546Z,1003.39
2018-03-24T09:14:37.972Z,1003.42
2018-03-24T09:15:38.384Z,1003.41
2018-03-24T09:16:38.812Z,1003.43
2018-03-24T09:17:39.237Z,1003.43
2018-03-24T09:18:39.668Z,1003.40
2018-03-24T09:19:40.103Z,1003.41
2018-03-24T09:20:40.514Z,1003.42
2018-03-24T09:21:40.929Z,1003.41
2018-03-24T09:22:41.350Z,1003.38
2018-03-24T09:23:41.779Z,1003.39
2018-03-24T09:24:42.194Z,1003.42
2018-03-24T09:25:42.623Z,1003.36
2018-03-24T09:26:43.047Z,1003.39
2018-03-24T09:27:43.467Z,1003.37
2018-03-24T09:28:43.907Z,1003.39
2018-03-24T09:29:44.322Z,1003.37
2018-03-24T09:30:44.740Z,1003.37
2018-03-24T09:31:45.165Z,1003.34
2018-03-24T09:32:45.582Z,1003.33
2018-03-24T09:33:46.012Z,1003.38
2018-03-24T09:34:46.430Z,1003.36
2018-03-24T09:35:46.884Z,1003.35
2018-03-24T09:36:47.285Z,1003.34
2018-03-24T09:37:47.705Z,1003.36
2018-03-24T09:38:48.158Z,1003.33
2018-03-24T09:39:48.603Z,1003.36
2018-03-24T09:40:48.980Z,1003.35
2018-03-24T09:41:49.397Z,1003.35
2018-03-24T09:42:49.825Z,1003.34
2018-03-24T09:43:50.235Z,1003.31
2018-03-24T09:44:50.669Z,1003.32
2018-03-24T09:45:51.092Z,1003.31
2018-03-24T09:46:51.517Z,1003.33
2018-03-24T09:47:51.932Z,1003.27
2018-03-24T09:48:52.360Z,1003.26
2018-03-24T09:49:52.783Z,1003.29
2018-03-24T09:51:16.294Z,1003.26
2018-03-24T09:51:53.636Z,1003.28
2018-03-24T09:52:54.094Z,1003.31
2018-03-24T09:53:54.488Z,1003.32
2018-03-24T09:54:54.927Z,1003.30
2018-03-24T09:55:55.330Z,1003.28
2018-03-24T09:56:55.756Z,1003.28
2018-03-24T09:57:56.177Z,1003.31
2018-03-24T09:58:56.596Z,1003.27
2018-03-24T09:59:57.024Z,1003.26
2018-03-24T10:00:57.439Z,1003.30
2018-03-24T10:01:57.871Z,1003.28
2018-03-24T10:02:58.288Z,1003.29
2018-03-24T10:03:58.710Z,1003.26
2018-03-24T10:04:59.139Z,1003.27
2018-03-24T10:05:59.570Z,1003.30
2018-03-24T10:06:59.982Z,1003.27
2018-03-24T10:08:00.412Z,1003.29
2018-03-24T10:09:00.831Z,1003.31
2018-03-24T10:10:01.262Z,1003.34
2018-03-24T10:11:01.693Z,1003.31
2018-03-24T10:12:02.101Z,1003.27
2018-03-24T10:13:02.535Z,1003.26
2018-03-24T10:14:02.951Z,1003.26
2018-03-24T10:15:03.375Z,1003.22
2018-03-24T10:16:03.803Z,1003.21
2018-03-24T10:17:04.243Z,1003.26
2018-03-24T10:18:04.658Z,1003.25
2018-03-24T10:19:05.074Z,1003.24
2018-03-24T10:20:05.501Z,1003.29
2018-03-24T10:21:05.925Z,1003.27
2018-03-24T10:22:06.347Z,1003.26
2018-03-24T10:23:06.774Z,1003.23
2018-03-24T10:24:07.199Z,1003.25
2018-03-24T10:25:07.625Z,1003.20
2018-03-24T10:26:08.052Z,1003.23
2018-03-24T10:27:08.476Z,1003.20
2018-03-24T10:28:08.894Z,1003.20
2018-03-24T10:29:09.323Z,1003.21
2018-03-24T10:30:09.755Z,1003.21
2018-03-24T10:31:10.193Z,1003.16
2018-03-24T10:32:10.608Z,1003.18
2018-03-24T10:33:11.030Z,1003.19
2018-03-24T10:34:11.456Z,1003.16
2018-03-24T10:35:11.883Z,1003.14
2018-03-24T10:36:12.304Z,1003.14
2018-03-24T10:37:12.739Z,1003.19
2018-03-24T10:38:13.160Z,1003.19
2018-03-24T10:39:13.588Z,1003.19
2018-03-24T10:40:14.016Z,1003.16
2018-03-24T10:41:14.437Z,1003.16
2018-03-24T10:42:14.883Z,1003.15
2018-03-24T10:43:15.293Z,1003.14
2018-03-24T10:44:15.719Z,1003.20
2018-03-24T10:45:16.154Z,1003.20
2018-03-24T10:46:16.587Z,1003.18
2018-03-24T10:47:17.004Z,1003.21
2018-03-24T10:48:17.424Z,1003.21
2018-03-24T10:49:17.862Z,1003.11
2018-03-24T10:50:18.281Z,1003.12
2018-03-24T10:51:18.706Z,1003.12
2018-03-24T10:52:19.139Z,1003.12
2018-03-24T10:53:19.597Z,1003.08
2018-03-24T10:54:19.993Z,1003.11
2018-03-24T10:56:53.594Z,1003.10
2018-03-24T10:57:53.959Z,1003.10
2018-03-24T10:59:48.584Z,1003.16
2018-03-24T11:00:48.990Z,1003.13
2018-03-24T11:02:43.812Z,1003.18
2018-03-24T11:03:44.009Z,1003.15
2018-03-24T11:05:39.577Z,1003.13
2018-03-24T11:06:39.986Z,1003.21
2018-03-24T11:08:34.573Z,1003.17
2018-03-24T11:09:35.006Z,1003.19
2018-03-24T11:11:29.596Z,1003.14
2018-03-24T11:12:30.020Z,1003.12
2018-03-24T11:14:24.618Z,1003.13
2018-03-24T11:15:25.066Z,1003.14
2018-03-24T11:17:19.638Z,1003.14
2018-03-24T11:18:20.074Z,1003.17
2018-03-24T11:20:14.642Z,1003.14
2018-03-24T11:21:15.073Z,1003.14
2018-03-24T11:23:10.712Z,1003.14
2018-03-24T11:24:11.143Z,1003.14
2018-03-24T11:26:07.556Z,1003.09
2018-03-24T11:28:41.132Z,1003.10
2018-03-24T11:31:18.815Z,1003.08
2018-03-24T11:33:55.919Z,1003.12
2018-03-24T11:34:56.349Z,1003.10
2018-03-24T11:35:56.740Z,1003.12
2018-03-24T11:36:57.160Z,1003.12
2018-03-24T11:37:57.583Z,1003.10
2018-03-24T11:40:31.238Z,1003.16
2018-03-24T11:41:31.661Z,1003.15
2018-03-24T11:43:26.284Z,1003.13
2018-03-24T11:44:26.702Z,1003.16
2018-03-24T11:46:21.293Z,1003.15
2018-03-24T11:47:21.714Z,1003.17
2018-03-24T11:49:17.295Z,1003.12
2018-03-24T11:50:17.732Z,1003.12
2018-03-24T11:52:12.317Z,1003.14
2018-03-24T11:53:12.732Z,1003.14
2018-03-24T11:55:07.352Z,1003.14
2018-03-24T11:56:07.796Z,1003.15
2018-03-24T11:58:02.369Z,1003.16
2018-03-24T11:59:02.790Z,1003.13
2018-03-24T12:00:58.360Z,1003.18
2018-03-24T12:01:58.837Z,1003.18
2018-03-24T12:02:59.214Z,1003.15
2018-03-24T12:03:59.640Z,1003.14
2018-03-24T12:05:00.068Z,1003.12
2018-03-24T12:06:00.504Z,1003.16
2018-03-24T12:07:00.923Z,1003.12
2018-03-24T12:09:34.466Z,1003.06
2018-03-24T12:10:34.882Z,1003.04
2018-03-24T12:12:29.510Z,1003.02
2018-03-24T12:13:37.086Z,1003.06
2018-03-24T12:15:25.530Z,1002.99
2018-03-24T12:18:00.611Z,1002.92
2018-03-24T12:20:34.160Z,1002.94
2018-03-24T12:21:34.590Z,1002.93
2018-03-24T12:23:29.187Z,1002.91
2018-03-24T12:24:29.608Z,1002.92
2018-03-24T12:26:24.208Z,1002.97
2018-03-24T12:27:24.625Z,1002.94
2018-03-24T12:29:19.235Z,1002.96
2018-03-24T12:30:19.648Z,1002.90
2018-03-24T12:32:14.238Z,1002.92
2018-03-24T12:33:14.668Z,1002.93
2018-03-24T12:35:09.281Z,1002.95
2018-03-24T12:36:09.713Z,1002.92
2018-03-24T12:37:10.148Z,1002.90
2018-03-24T12:38:10.558Z,1002.94
2018-03-24T12:39:10.985Z,1002.95
2018-03-24T12:40:11.424Z,1002.94
2018-03-24T12:41:11.841Z,1002.92
2018-03-24T12:43:46.644Z,1002.94
2018-03-24T12:46:20.028Z,1002.92
2018-03-24T12:47:20.363Z,1002.92
2018-03-24T12:49:14.969Z,1002.96
2018-03-24T12:50:15.392Z,1002.93
2018-03-24T12:52:10.898Z,1002.92
2018-03-24T12:53:10.436Z,1002.97
2018-03-24T12:55:06.001Z,1002.89
2018-03-24T12:56:06.415Z,1002.93
2018-03-24T12:57:06.843Z,1002.95
2018-03-24T12:58:07.287Z,1002.95
2018-03-24T12:59:07.704Z,1002.96
2018-03-24T13:00:08.138Z,1002.92